Cobleskill, NY

17:04 EDT 24. Mai 2015 (GMT -0400)
Above the Reservoir | | Change Station
CLOSE
Current Station
Isiklikud ilmajaamad
Location: COBLESKILL, NY
Kõrgus: 1425 ft
Nearby Weather Stations

Elev 1425 ft 42.66 °N, 74.43 °W | Updated 14 minutes ago

Osaliselt pilves
Osaliselt pilves
74.4 °F
Feels Like 77 °F
Põhja
7.0
Tuul Muutliku suunaga Tuul from Lääneloode
Gusts 16.0 mph

Täna
High -- | Low -- °F
--% Chance of Precip.
Eile
High -- | Low -- °F
Precip. -- tolli
5:27 AM 8:22 PM
Poolkuu (esimene veerand), 42% visible
Õhurõhk 30.18 tolli
Nähtavus 10.0 miili
Pilved Few 6000 ft
Hajus pilvisus 20000 ft
Peamiselt pilves 25000 ft
Kuumaindeks 77 °F
Kastepunkt 42 °F
Õhuniiskus 31%
Sademed 0.00 tolli
Lume paksus Not available.
UV 2 , kõrgeim võimalik 12
Õietolm 9.70 , kõrgeim võimalik 12
Õhukvaliteet Not available.
Flu Activity Widespread
METAR KALB 242051Z 26011KT 10SM FEW060 SCT200 BKN250 27/04 A3018 RMK AO2 SLP218 T02720044 56012

More Conditions Fewer Conditions

Õhurõhk 30.18 tolli
Nähtavus 10.0 miili
Pilved Few 6000 ft
Hajus pilvisus 20000 ft
Peamiselt pilves 25000 ft
Kuumaindeks 77 °F
Kastepunkt 42 °F
Õhuniiskus 31%
Sademed 0.00 tolli
Lume paksus Not available.
UV 2 , kõrgeim võimalik 12
Õietolm 9.70 , kõrgeim võimalik 12
Õhukvaliteet Not available.
Flu Activity Widespread
METAR KALB 242051Z 26011KT 10SM FEW060 SCT200 BKN250 27/04 A3018 RMK AO2 SLP218 T02720044 56012

More Conditions Fewer Conditions

10-Day Weather Forecast

Almanac

Astronoomia

May. 24, 2015 Tõus Loojang
Tegelik aeg
Tsiviilne hämarik
Nautiline hämarik
Astronoomiline hämarik
Kuu
Nähtava valguse kestus
Päeva pikkus
Tomorrow will be .
, % of the Moon is Illuminated

Tänased ekstreemumid

State Highs State Lows

Community

WunderPhotos

Upload Photos

1,823,865 photos uploaded!

WunderBlogs® & News

Nearby

Õhukvaliteet

  Õhukvaliteet ÕK indeks Reostaja
Not available.

Lume paksus

Station Depth Kõrgus

Maavärinate aktiivsus

Linn Distance Mag. Time & Date
Minimum magnitude displayed is 2.5.

Coastal Water Temperatures

Koht Temperatuur

Stations

Nearby Weather Stations

Jaama asukoht Temp. Tuulekülm Kastepunkt Õhuniiskus Tuul Precip. Elev Uuendatud Tüüp